Time;durP1;ratioP1;P1;durP2;ratioP2;P2;SDS_P1;SDS_P2;PMS_P1;PMS_P2;Temp;Humidity;BMP_temperature;BMP_pressure;BME280_temperature;BME280_humidity;BME280_pressure;Samples;Min_cycle;Max_cycle;Signal;HPM_P1;HPM_P2
2022/03/08 00:00:56;;;;;;;20.63;11.15;;;;;;;-2.57;52.94;97051.50;2067716;28;20198;-60
2022/03/08 00:01:57;;;;;;;22.02;12.57;;;;;;;-2.59;53.11;97054.13;2068084;28;20217;-60
2022/03/08 00:02:59;;;;;;;25.42;12.38;;;;;;;-2.62;53.40;97046.44;2066028;28;20236;-60
2022/03/08 00:04:01;;;;;;;20.73;11.93;;;;;;;-2.78;53.76;97042.31;2067241;28;20241;-61
2022/03/08 00:05:02;;;;;;;19.55;12.45;;;;;;;-2.66;53.65;97049.91;2067255;28;20568;-60
2022/03/08 00:06:04;;;;;;;20.45;12.02;;;;;;;-2.64;53.63;97045.59;2067776;28;20210;-60
2022/03/08 00:07:07;;;;;;;18.95;10.82;;;;;;;-2.65;53.57;97053.31;2067374;28;20212;-60
2022/03/08 00:08:08;;;;;;;22.58;12.18;;;;;;;-2.65;53.49;97043.88;2068274;28;20232;-60
2022/03/08 00:09:10;;;;;;;21.05;11.93;;;;;;;-2.68;53.51;97043.94;2066987;28;20940;-61
2022/03/08 00:10:12;;;;;;;18.85;10.95;;;;;;;-2.66;53.30;97042.19;2063808;28;20837;-60
2022/03/08 00:11:16;;;;;;;18.35;12.35;;;;;;;-2.63;53.17;97043.88;2065086;28;20689;-61
2022/03/08 00:12:17;;;;;;;20.05;12.15;;;;;;;-2.69;53.46;97047.34;2064973;28;20198;-60
2022/03/08 00:13:19;;;;;;;24.88;12.13;;;;;;;-2.73;53.56;97048.25;2066142;28;20570;-61
2022/03/08 00:14:21;;;;;;;22.95;12.38;;;;;;;-2.72;53.82;97049.97;2066911;28;20193;-60
2022/03/08 00:15:25;;;;;;;19.90;13.30;;;;;;;-2.75;53.70;97052.53;2068148;28;20569;-60
2022/03/08 00:16:27;;;;;;;16.20;10.73;;;;;;;-2.69;53.76;97042.22;2068326;28;20230;-60
2022/03/08 00:17:29;;;;;;;19.45;12.20;;;;;;;-2.72;54.08;97042.25;2067883;28;20202;-60
2022/03/08 00:18:30;;;;;;;20.23;10.98;;;;;;;-2.67;53.70;97049.91;2069899;28;20198;-61
2022/03/08 00:19:32;;;;;;;19.63;12.00;;;;;;;-2.73;54.01;97043.09;2068027;28;20201;-61
2022/03/08 00:20:33;;;;;;;27.60;11.13;;;;;;;-2.66;53.50;97047.34;2068764;28;20255;-61
2022/03/08 00:21:35;;;;;;;19.20;11.45;;;;;;;-2.71;53.74;97043.94;2068542;28;20196;-60
2022/03/08 00:22:37;;;;;;;18.73;11.13;;;;;;;-2.70;53.77;97045.66;2067977;28;20203;-60
2022/03/08 00:23:39;;;;;;;19.45;12.23;;;;;;;-2.72;53.42;97049.13;2068269;28;20209;-61
2022/03/08 00:24:40;;;;;;;19.55;11.55;;;;;;;-2.72;53.37;97051.69;2068594;28;20218;-60
2022/03/08 00:25:42;;;;;;;17.80;11.02;;;;;;;-2.75;53.51;97051.69;2068358;28;20749;-60
2022/03/08 00:26:43;;;;;;;24.65;12.20;;;;;;;-2.70;53.41;97055.06;2068634;28;20589;-60
2022/03/08 00:27:47;;;;;;;20.80;11.32;;;;;;;-2.68;53.40;97054.19;2068319;28;20203;-60
2022/03/08 00:28:48;;;;;;;23.20;12.82;;;;;;;-2.79;53.96;97053.44;2069561;28;20209;-60
2022/03/08 00:29:50;;;;;;;19.02;11.60;;;;;;;-2.87;53.84;97057.78;2069303;28;20202;-61
2022/03/08 00:30:52;;;;;;;19.45;11.60;;;;;;;-2.79;53.95;97066.25;2070904;28;20247;-61
2022/03/08 00:31:53;;;;;;;21.63;11.95;;;;;;;-2.86;53.74;97052.63;2068534;28;20923;-61
2022/03/08 00:32:55;;;;;;;18.70;11.50;;;;;;;-2.85;54.35;97058.63;2069611;28;20202;-61
2022/03/08 00:33:56;;;;;;;19.10;11.57;;;;;;;-2.90;54.33;97057.78;2068095;28;20206;-61
2022/03/08 00:34:58;;;;;;;27.27;14.05;;;;;;;-2.74;54.36;97061.94;2065876;28;20194;-61
2022/03/08 00:36:00;;;;;;;19.85;11.65;;;;;;;-2.86;54.85;97064.59;2068021;28;20194;-61
2022/03/08 00:37:03;;;;;;;22.10;11.98;;;;;;;-2.83;54.51;97062.00;2070271;28;20250;-60
2022/03/08 00:38:04;;;;;;;19.17;12.50;;;;;;;-2.89;54.80;97057.78;2068669;28;20198;-61
2022/03/08 00:39:06;;;;;;;19.10;11.02;;;;;;;-2.92;54.93;97057.81;2068097;28;20190;-61
2022/03/08 00:40:10;;;;;;;22.27;12.23;;;;;;;-2.89;54.72;97059.50;2068033;28;20609;-61
2022/03/08 00:41:11;;;;;;;23.40;13.00;;;;;;;-2.89;55.17;97062.91;2065944;28;20580;-61
2022/03/08 00:42:13;;;;;;;20.45;12.00;;;;;;;-2.96;54.96;97058.69;2067913;28;20205;-61
2022/03/08 00:43:14;;;;;;;17.50;10.50;;;;;;;-2.98;55.36;97060.41;2068665;28;20202;-61
2022/03/08 00:44:16;;;;;;;18.35;11.50;;;;;;;-3.08;55.42;97059.63;2069888;28;20244;-61
2022/03/08 00:45:19;;;;;;;19.15;11.38;;;;;;;-3.02;55.50;97059.63;2068959;28;20226;-60
2022/03/08 00:46:20;;;;;;;20.77;11.85;;;;;;;-3.03;55.48;97046.81;2069316;28;20395;-61
2022/03/08 00:47:22;;;;;;;25.25;11.63;;;;;;;-2.96;54.80;97060.41;2066124;28;20198;-60
2022/03/08 00:48:24;;;;;;;23.77;11.95;;;;;;;-3.04;55.04;97056.22;2068748;28;20205;-60
2022/03/08 00:49:25;;;;;;;21.70;11.45;;;;;;;-2.97;54.85;97053.59;2067922;28;20199;-61
2022/03/08 00:50:29;;;;;;;19.40;12.43;;;;;;;-3.08;54.83;97040.84;2065980;28;20229;-61
2022/03/08 00:51:31;;;;;;;18.25;11.65;;;;;;;-3.03;54.96;97052.78;2065440;28;20704;-60
2022/03/08 00:52:33;;;;;;;19.35;12.00;;;;;;;-3.03;54.65;97057.91;2067636;28;20214;-60
2022/03/08 00:53:34;;;;;;;24.15;12.27;;;;;;;-3.03;55.14;97057.06;2070186;28;20193;-60
2022/03/08 00:54:36;;;;;;;19.58;11.30;;;;;;;-3.10;55.36;97053.66;2068036;28;20207;-60
2022/03/08 00:55:38;;;;;;;21.25;12.25;;;;;;;-3.26;55.97;97044.41;2067724;28;20566;-61
2022/03/08 00:56:39;;;;;;;22.98;11.30;;;;;;;-3.31;56.56;97051.25;2068295;28;20578;-60
2022/03/08 00:57:41;;;;;;;20.50;12.32;;;;;;;-3.43;56.77;97047.94;2069249;28;20539;-60
2022/03/08 00:58:44;;;;;;;22.20;11.70;;;;;;;-3.48;57.18;97047.09;2065855;28;20290;-60
2022/03/08 00:59:45;;;;;;;22.42;12.75;;;;;;;-3.43;56.66;97047.06;2066835;28;20205;-60
2022/03/08 01:00:47;;;;;;;17.73;11.40;;;;;;;-3.35;56.79;97053.00;2065779;28;20642;-60
2022/03/08 01:01:48;;;;;;;20.77;12.55;;;;;;;-3.36;56.18;97038.50;2067648;28;20832;-60
2022/03/08 01:02:50;;;;;;;21.48;10.98;;;;;;;-3.29;55.98;97050.41;2065044;28;20708;-60
2022/03/08 01:03:52;;;;;;;17.52;10.07;;;;;;;-3.28;56.19;97049.53;2069404;28;20209;-60
2022/03/08 01:04:54;;;;;;;18.65;11.00;;;;;;;-3.28;55.84;97046.13;2067065;28;20201;-61
2022/03/08 01:05:55;;;;;;;17.92;10.35;;;;;;;-3.24;55.98;97046.09;2067727;28;20722;-61
2022/03/08 01:06:57;;;;;;;22.60;11.55;;;;;;;-3.21;55.70;97050.34;2065938;28;20195;-60
2022/03/08 01:08:00;;;;;;;19.67;11.32;;;;;;;-3.22;55.94;97053.75;2066910;28;20205;-60
2022/03/08 01:09:03;;;;;;;19.70;11.50;;;;;;;-3.29;56.04;97045.28;2068021;28;20199;-60
2022/03/08 01:10:07;;;;;;;21.55;11.27;;;;;;;-3.34;56.14;97052.13;2065465;28;20249;-60
2022/03/08 01:11:09;;;;;;;24.33;12.38;;;;;;;-3.44;56.75;97053.06;2068400;28;20638;-60
2022/03/08 01:12:10;;;;;;;21.88;12.23;;;;;;;-3.50;56.82;97050.56;2068788;28;20209;-61
2022/03/08 01:13:12;;;;;;;21.10;12.57;;;;;;;-3.43;56.50;97055.63;2068167;28;20577;-60
2022/03/08 01:14:13;;;;;;;21.05;12.00;;;;;;;-3.33;56.56;97056.41;2069421;28;20194;-60
2022/03/08 01:15:17;;;;;;;25.67;11.30;;;;;;;-3.30;56.16;97060.66;2070122;28;20222;-60
2022/03/08 01:16:19;;;;;;;17.67;11.07;;;;;;;-3.30;56.02;97053.81;2069750;28;20195;-60
2022/03/08 01:17:21;;;;;;;22.13;11.82;;;;;;;-3.35;56.05;97044.47;2065819;28;20195;-60
2022/03/08 01:18:23;;;;;;;20.98;11.48;;;;;;;-3.48;56.44;97039.44;2067571;28;20194;-60
2022/03/08 01:19:24;;;;;;;18.95;11.18;;;;;;;-3.43;56.90;97042.81;2067986;28;20186;-60
2022/03/08 01:20:26;;;;;;;24.75;11.40;;;;;;;-3.52;57.04;97040.31;2066753;28;20240;-60
2022/03/08 01:21:28;;;;;;;21.63;11.30;;;;;;;-3.55;57.03;97042.03;2067846;28;20559;-60
2022/03/08 01:22:29;;;;;;;19.98;11.30;;;;;;;-3.62;57.30;97038.66;2067041;28;20213;-60
2022/03/08 01:23:31;;;;;;;26.13;12.00;;;;;;;-3.62;57.38;97034.38;2066219;28;20268;-60
2022/03/08 01:24:33;;;;;;;21.95;11.93;;;;;;;-3.59;57.15;97041.19;2067542;28;20194;-60
2022/03/08 01:25:36;;;;;;;18.63;11.38;;;;;;;-3.53;57.10;97036.03;2067144;28;20248;-60
2022/03/08 01:26:38;;;;;;;22.08;11.52;;;;;;;-3.44;57.37;97040.25;2067644;28;20202;-60
2022/03/08 01:27:40;;;;;;;17.08;10.75;;;;;;;-3.40;56.90;97047.06;2068068;28;20206;-60
2022/03/08 01:28:42;;;;;;;17.58;10.82;;;;;;;-3.48;56.95;97033.47;2066984;28;20205;-60
2022/03/08 01:29:43;;;;;;;22.60;12.10;;;;;;;-3.44;57.24;97030.84;2067683;28;20198;-60
2022/03/08 01:30:46;;;;;;;18.27;9.70;;;;;;;-3.49;56.97;97037.75;2067580;28;20202;-60
2022/03/08 01:31:47;;;;;;;21.05;11.18;;;;;;;-3.57;57.19;97034.34;2066877;28;20194;-60
2022/03/08 01:32:49;;;;;;;19.25;11.85;;;;;;;-3.59;57.23;97031.81;2067671;28;20624;-60
2022/03/08 01:33:51;;;;;;;23.95;12.13;;;;;;;-3.59;57.13;97044.63;2069029;28;20201;-60
2022/03/08 01:34:52;;;;;;;20.33;11.15;;;;;;;-3.59;57.71;97041.19;2068249;28;20570;-60
2022/03/08 01:35:55;;;;;;;20.95;11.75;;;;;;;-3.58;57.57;97035.22;2066782;28;20579;-60
2022/03/08 01:36:57;;;;;;;18.13;11.88;;;;;;;-3.55;57.55;97030.06;2065976;28;20202;-60
2022/03/08 01:37:59;;;;;;;22.13;10.27;;;;;;;-3.72;57.76;97031.88;2067845;28;20195;-60
2022/03/08 01:39:01;;;;;;;20.65;11.38;;;;;;;-3.86;58.09;97026.84;2068864;28;20206;-60
2022/03/08 01:40:05;;;;;;;24.65;11.50;;;;;;;-3.71;57.89;97029.31;2064258;28;20235;-60
2022/03/08 01:41:07;;;;;;;19.83;12.05;;;;;;;-3.65;57.17;97031.00;2065221;28;20218;-60
2022/03/08 01:42:11;;;;;;;20.70;11.02;;;;;;;-3.52;56.87;97027.50;2065707;28;20638;-61
2022/03/08 01:43:13;;;;;;;17.70;11.38;;;;;;;-3.60;57.24;97031.81;2067243;28;20265;-60
2022/03/08 01:44:17;;;;;;;18.35;11.15;;;;;;;-3.62;57.17;97026.72;2067488;28;20198;-61
2022/03/08 01:45:21;;;;;;;17.85;10.70;;;;;;;-3.65;57.31;97020.75;2066775;28;20249;-60
2022/03/08 01:46:23;;;;;;;18.02;11.68;;;;;;;-3.65;57.58;97029.28;2066220;28;20202;-60
2022/03/08 01:47:26;;;;;;;21.92;12.27;;;;;;;-3.74;57.93;97023.34;2065319;28;20198;-60
2022/03/08 01:48:28;;;;;;;18.40;11.68;;;;;;;-3.82;58.26;97015.75;2065908;28;20554;-60
2022/03/08 01:49:30;;;;;;;18.02;11.85;;;;;;;-3.89;58.41;97017.47;2067922;28;20206;-60
2022/03/08 01:50:31;;;;;;;22.00;12.48;;;;;;;-3.82;58.70;97023.44;2067150;28;20597;-60
2022/03/08 01:51:34;;;;;;;23.83;12.27;;;;;;;-3.92;58.49;97022.63;2067519;28;20274;-60
2022/03/08 01:52:37;;;;;;;20.13;11.15;;;;;;;-3.88;58.68;97023.44;2066046;28;20221;-60
2022/03/08 01:53:40;;;;;;;18.23;11.82;;;;;;;-3.93;58.50;97028.59;2067626;28;20206;-60
2022/03/08 01:54:43;;;;;;;20.40;11.63;;;;;;;-4.03;59.02;97021.81;2069060;28;20205;-60
2022/03/08 01:55:44;;;;;;;20.23;11.60;;;;;;;-4.00;58.56;97016.66;2069226;28;20226;-60
2022/03/08 01:56:50;;;;;;;25.75;12.27;;;;;;;-4.00;58.75;97016.66;2068821;28;20218;-60
2022/03/08 01:57:53;;;;;;;23.42;12.43;;;;;;;-3.92;58.50;97019.19;2069174;28;20199;-61
2022/03/08 01:58:54;;;;;;;22.10;12.48;;;;;;;-3.83;58.25;97011.47;2069862;28;20199;-60
2022/03/08 01:59:56;;;;;;;22.00;12.05;;;;;;;-3.78;57.91;97014.88;2067043;28;20209;-60
2022/03/08 02:00:57;;;;;;;19.00;10.77;;;;;;;-3.90;58.18;97003.00;2068947;28;20203;-60
2022/03/08 02:01:59;;;;;;;22.63;12.02;;;;;;;-3.75;57.81;97009.72;2069401;28;20763;-60
2022/03/08 02:03:01;;;;;;;17.58;10.23;;;;;;;-3.78;57.69;97005.47;2070160;28;20205;-60
2022/03/08 02:04:03;;;;;;;18.50;10.88;;;;;;;-3.87;57.96;96995.28;2069011;28;20190;-61
2022/03/08 02:05:05;;;;;;;20.13;11.70;;;;;;;-3.73;57.79;97004.59;2065712;28;20676;-60
2022/03/08 02:06:07;;;;;;;28.08;11.02;;;;;;;-3.70;57.38;97007.16;2067387;28;20689;-60
2022/03/08 02:07:09;;;;;;;21.17;11.80;;;;;;;-3.72;57.46;97006.28;2068177;28;20205;-60
2022/03/08 02:08:13;;;;;;;19.17;10.98;;;;;;;-3.66;57.81;96999.44;2069926;28;20205;-60
2022/03/08 02:09:15;;;;;;;23.77;11.27;;;;;;;-3.64;57.31;97000.25;2069039;28;20205;-60
2022/03/08 02:10:16;;;;;;;20.67;11.25;;;;;;;-3.72;57.68;96999.47;2066597;28;20230;-60
2022/03/08 02:11:19;;;;;;;19.70;10.63;;;;;;;-3.74;57.78;97010.56;2068590;28;20225;-61
2022/03/08 02:12:20;;;;;;;18.88;11.23;;;;;;;-3.72;57.87;96998.59;2070776;28;20665;-60
2022/03/08 02:13:25;;;;;;;20.70;11.32;;;;;;;-3.70;57.58;96995.19;2070779;28;20673;-60
2022/03/08 02:14:27;;;;;;;21.38;12.02;;;;;;;-3.72;57.69;96998.59;2069269;28;20206;-60
2022/03/08 02:15:29;;;;;;;20.35;10.73;;;;;;;-3.70;57.73;96997.75;2067124;28;20626;-60
2022/03/08 02:16:31;;;;;;;25.83;11.68;;;;;;;-3.70;57.63;97005.44;2069777;28;20231;-60
2022/03/08 02:17:32;;;;;;;27.85;11.50;;;;;;;-3.82;57.71;96993.56;2069615;28;20205;-61
2022/03/08 02:18:34;;;;;;;17.70;10.65;;;;;;;-3.75;57.79;96998.63;2069876;28;20198;-60
2022/03/08 02:19:35;;;;;;;19.17;11.63;;;;;;;-3.75;57.65;96994.34;2069062;28;20202;-60
2022/03/08 02:20:37;;;;;;;16.70;10.50;;;;;;;-3.71;57.71;96998.59;2068458;28;20230;-60
2022/03/08 02:21:39;;;;;;;15.68;9.65;;;;;;;-3.66;57.44;96994.31;2068124;28;20573;-60
2022/03/08 02:22:43;;;;;;;21.77;10.50;;;;;;;-3.76;57.83;96990.09;2070263;28;20198;-61
2022/03/08 02:23:44;;;;;;;20.92;10.73;;;;;;;-3.77;57.82;96991.78;2069446;28;20201;-60
2022/03/08 02:24:46;;;;;;;18.58;10.75;;;;;;;-3.69;57.65;96984.06;2069688;28;20205;-61
2022/03/08 02:25:47;;;;;;;16.65;10.73;;;;;;;-3.70;57.49;96984.94;2067265;28;20209;-60
2022/03/08 02:26:50;;;;;;;23.95;10.50;;;;;;;-3.64;57.40;96984.91;2068445;28;20194;-60
2022/03/08 02:27:53;;;;;;;20.42;10.32;;;;;;;-3.72;57.60;96968.75;2068296;28;20198;-60
2022/03/08 02:28:55;;;;;;;21.58;10.70;;;;;;;-3.72;57.78;96976.44;2069134;28;20672;-60
2022/03/08 02:29:58;;;;;;;22.58;10.80;;;;;;;-3.69;57.62;96971.28;2068883;28;20805;-60
2022/03/08 02:31:00;;;;;;;18.35;11.15;;;;;;;-3.69;57.42;96970.44;2069336;28;20198;-60
2022/03/08 02:32:02;;;;;;;17.20;10.27;;;;;;;-3.69;57.27;96973.00;2070695;28;20637;-60
2022/03/08 02:33:03;;;;;;;16.83;9.90;;;;;;;-3.68;57.16;96967.03;2068784;28;20261;-60
2022/03/08 02:34:05;;;;;;;20.73;11.50;;;;;;;-3.64;57.20;96966.13;2068597;28;20199;-60
2022/03/08 02:35:09;;;;;;;23.45;10.85;;;;;;;-3.62;57.27;96966.97;2068048;28;20234;-60
2022/03/08 02:36:11;;;;;;;19.50;10.50;;;;;;;-3.59;57.10;96964.38;2068595;28;20209;-60
2022/03/08 02:37:12;;;;;;;18.65;11.30;;;;;;;-3.66;57.47;96970.41;2067326;28;20234;-60
2022/03/08 02:38:14;;;;;;;21.25;11.00;;;;;;;-3.72;57.45;96962.75;2067738;28;20194;-60
2022/03/08 02:39:15;;;;;;;16.40;9.85;;;;;;;-3.62;57.25;96962.69;2068540;28;20202;-60
2022/03/08 02:40:19;;;;;;;18.45;10.95;;;;;;;-3.55;56.57;96960.94;2067374;28;20229;-60
2022/03/08 02:41:21;;;;;;;16.83;10.13;;;;;;;-3.64;57.10;96976.38;2068761;28;20289;-60
2022/03/08 02:42:22;;;;;;;17.95;9.90;;;;;;;-3.63;57.18;96978.06;2070109;28;20209;-60
2022/03/08 02:43:24;;;;;;;15.77;9.93;;;;;;;-3.66;57.36;96970.41;2069594;28;20193;-60
2022/03/08 02:44:27;;;;;;;24.77;11.85;;;;;;;-3.77;57.35;96966.19;2068962;28;20791;-60
2022/03/08 02:45:29;;;;;;;17.30;9.77;;;;;;;-3.69;57.24;96967.88;2068786;28;20217;-60
2022/03/08 02:46:30;;;;;;;17.75;11.35;;;;;;;-3.78;57.65;96961.13;2070408;28;20195;-60
2022/03/08 02:47:32;;;;;;;18.17;9.52;;;;;;;-3.81;57.73;96966.25;2070158;28;20458;-60
2022/03/08 02:48:34;;;;;;;17.95;10.35;;;;;;;-3.77;57.57;96968.75;2069466;28;20625;-60
2022/03/08 02:49:36;;;;;;;16.83;10.73;;;;;;;-3.70;57.46;96967.03;2068944;28;20205;-60
2022/03/08 02:50:37;;;;;;;27.13;10.60;;;;;;;-3.75;57.61;96963.63;2071102;28;20244;-60
2022/03/08 02:51:39;;;;;;;15.45;10.50;;;;;;;-3.80;58.02;96966.22;2069027;28;20209;-60
2022/03/08 02:52:42;;;;;;;17.67;10.90;;;;;;;-3.94;59.03;96968.03;2069167;28;20638;-60
2022/03/08 02:53:44;;;;;;;19.90;11.45;;;;;;;-4.14;59.75;96959.59;2070022;28;20210;-60
2022/03/08 02:54:45;;;;;;;24.17;12.30;;;;;;;-4.33;60.75;96969.94;2068957;28;20202;-60
2022/03/08 02:55:47;;;;;;;22.95;12.75;;;;;;;-4.43;61.15;96968.25;2070637;28;20202;-60
2022/03/08 02:56:48;;;;;;;28.17;13.55;;;;;;;-4.46;61.31;96968.28;2067374;28;20198;-60
2022/03/08 02:57:51;;;;;;;24.58;12.18;;;;;;;-4.62;61.68;96965.75;2071470;28;20209;-61
2022/03/08 02:58:53;;;;;;;20.00;12.93;;;;;;;-4.60;61.80;96961.50;2067374;28;20206;-60
2022/03/08 02:59:54;;;;;;;25.63;11.85;;;;;;;-4.69;61.85;96958.97;2067407;28;20194;-60
2022/03/08 03:00:56;;;;;;;20.20;11.40;;;;;;;-4.69;61.33;96955.56;2067830;28;20198;-60
2022/03/08 03:01:57;;;;;;;19.05;11.70;;;;;;;-4.70;61.83;96964.09;2068710;28;20215;-60
2022/03/08 03:03:00;;;;;;;21.25;11.27;;;;;;;-4.59;61.57;96959.78;2068039;28;20289;-60
2022/03/08 03:04:01;;;;;;;18.42;11.40;;;;;;;-4.61;61.33;96956.38;2065912;28;20202;-60
2022/03/08 03:05:04;;;;;;;21.60;11.82;;;;;;;-4.54;61.05;96958.06;2065577;28;20236;-60
2022/03/08 03:06:05;;;;;;;16.95;9.65;;;;;;;-4.57;61.17;96958.94;2067290;28;20970;-60
2022/03/08 03:07:06;;;;;;;15.23;9.52;;;;;;;-4.54;61.21;96965.75;2067810;28;20202;-60
2022/03/08 03:08:08;;;;;;;19.85;12.10;;;;;;;-4.60;61.63;96958.94;2069311;28;20194;-61
2022/03/08 03:09:10;;;;;;;24.13;11.32;;;;;;;-4.63;61.45;96956.38;2070436;28;20205;-60
2022/03/08 03:10:16;;;;;;;18.73;10.02;;;;;;;-4.63;61.54;96958.09;2066540;28;20222;-60
2022/03/08 03:11:18;;;;;;;17.35;10.50;;;;;;;-4.66;61.83;96948.75;2069261;28;20634;-60
2022/03/08 03:12:19;;;;;;;18.52;10.90;;;;;;;-4.64;61.39;96959.81;2069427;28;20201;-60
2022/03/08 03:13:21;;;;;;;19.77;11.15;;;;;;;-4.63;61.33;96953.81;2067910;28;20205;-60
2022/03/08 03:14:24;;;;;;;16.70;9.98;;;;;;;-4.62;61.35;96947.03;2067619;28;20201;-60
2022/03/08 03:15:28;;;;;;;14.35;9.35;;;;;;;-4.61;61.36;96949.56;2068983;28;20222;-61
2022/03/08 03:16:29;;;;;;;20.15;11.77;;;;;;;-4.56;61.03;96947.00;2069163;28;20198;-60
2022/03/08 03:17:31;;;;;;;17.02;9.80;;;;;;;-4.57;61.15;96948.72;2068543;28;20770;-60
2022/03/08 03:18:32;;;;;;;19.70;10.88;;;;;;;-4.51;61.21;96942.69;2068178;28;20194;-60
2022/03/08 03:19:35;;;;;;;18.25;10.60;;;;;;;-4.54;61.38;96942.72;2067825;28;20217;-60
2022/03/08 03:20:37;;;;;;;23.30;11.48;;;;;;;-4.54;61.42;96944.44;2067168;28;20572;-60
2022/03/08 03:21:38;;;;;;;19.90;10.73;;;;;;;-4.55;61.35;96943.56;2066809;28;21065;-60
2022/03/08 03:22:40;;;;;;;22.88;11.32;;;;;;;-4.63;61.67;96948.72;2067018;28;20202;-60
2022/03/08 03:23:41;;;;;;;17.13;10.50;;;;;;;-4.57;61.82;96943.59;2066913;28;20194;-60
2022/03/08 03:24:43;;;;;;;20.67;11.00;;;;;;;-4.49;61.36;96946.09;2067651;28;20203;-61
2022/03/08 03:25:44;;;;;;;43.15;15.90;;;;;;;-4.63;61.84;96943.59;2068944;28;20202;-60
2022/03/08 03:26:45;;;;;;;36.45;15.88;;;;;;;-4.76;62.82;96944.50;2069010;28;20213;-60
2022/03/08 03:27:47;;;;;;;34.88;16.70;;;;;;;-4.87;63.06;96941.97;2069643;28;20201;-60
2022/03/08 03:28:49;;;;;;;31.05;15.50;;;;;;;-4.98;63.67;96939.47;2070794;28;20194;-60
2022/03/08 03:29:51;;;;;;;34.28;16.85;;;;;;;-5.01;63.86;96947.13;2067546;28;20555;-60
2022/03/08 03:30:52;;;;;;;32.47;16.30;;;;;;;-5.07;63.86;96946.28;2070196;28;20205;-61
2022/03/08 03:31:54;;;;;;;33.63;17.00;;;;;;;-5.15;64.17;96938.63;2069741;28;20206;-60
2022/03/08 03:32:55;;;;;;;32.42;16.80;;;;;;;-5.25;64.35;96940.34;2068508;28;20213;-60
2022/03/08 03:33:57;;;;;;;34.50;17.38;;;;;;;-5.21;64.33;96936.94;2069213;28;20211;-60
2022/03/08 03:34:58;;;;;;;32.88;15.88;;;;;;;-5.20;64.41;96937.78;2068522;28;20202;-60
2022/03/08 03:36:00;;;;;;;33.50;14.50;;;;;;;-5.05;63.70;96942.03;2070983;28;20566;-60
2022/03/08 03:37:03;;;;;;;27.40;14.00;;;;;;;-5.01;63.32;96943.72;2066164;28;20224;-60
2022/03/08 03:38:04;;;;;;;30.13;13.82;;;;;;;-4.94;63.05;96929.22;2067244;28;20273;-60
2022/03/08 03:39:06;;;;;;;25.98;12.77;;;;;;;-4.98;62.98;96934.34;2066958;28;20198;-60
2022/03/08 03:40:09;;;;;;;32.83;16.58;;;;;;;-4.95;63.46;96932.63;2067461;28;20226;-60
2022/03/08 03:41:11;;;;;;;30.05;14.77;;;;;;;-5.00;63.16;96936.06;2070192;28;20205;-60
2022/03/08 03:42:12;;;;;;;26.77;13.32;;;;;;;-5.05;63.40;96926.69;2066814;28;20202;-61
2022/03/08 03:43:14;;;;;;;22.98;13.35;;;;;;;-5.14;64.04;96929.25;2069195;28;20206;-60
2022/03/08 03:44:15;;;;;;;41.13;15.70;;;;;;;-5.20;64.33;96927.56;2067653;28;20276;-60
2022/03/08 03:45:17;;;;;;;31.42;15.43;;;;;;;-5.30;64.29;96933.53;2066744;28;20230;-60
2022/03/08 03:46:19;;;;;;;33.15;16.02;;;;;;;-5.52;64.98;96931.00;2068647;28;20200;-61
2022/03/08 03:47:20;;;;;;;25.90;14.63;;;;;;;-5.53;65.42;96936.94;2070490;28;20203;-60
2022/03/08 03:48:22;;;;;;;28.48;15.80;;;;;;;-5.54;65.43;96937.81;2067959;28;20205;-60
2022/03/08 03:49:23;;;;;;;27.52;14.65;;;;;;;-5.38;65.01;96933.56;2068282;28;20218;-60
2022/03/08 03:50:25;;;;;;;22.67;14.23;;;;;;;-5.67;65.12;96936.09;2068930;28;20225;-60
2022/03/08 03:51:26;;;;;;;37.78;14.30;;;;;;;-5.70;65.19;96930.97;2070121;28;20198;-60
2022/03/08 03:52:28;;;;;;;35.28;15.57;;;;;;;-5.60;64.80;96933.56;2066805;28;20214;-60
2022/03/08 03:53:29;;;;;;;28.58;13.80;;;;;;;-5.46;64.55;96930.16;2065836;28;20213;-60
2022/03/08 03:54:31;;;;;;;27.20;15.48;;;;;;;-5.48;64.97;96932.69;2066011;28;20198;-59
2022/03/08 03:55:32;;;;;;;29.33;16.40;;;;;;;-5.52;64.79;96933.56;2065845;28;20226;-60
2022/03/08 03:56:33;;;;;;;25.98;14.75;;;;;;;-5.56;64.86;96930.16;2068567;28;20206;-60
2022/03/08 03:57:35;;;;;;;25.17;14.40;;;;;;;-5.37;64.16;96937.78;2067545;28;20216;-60
2022/03/08 03:58:37;;;;;;;25.25;13.57;;;;;;;-5.51;64.10;96935.25;2069345;28;20205;-60
2022/03/08 03:59:39;;;;;;;31.02;15.25;;;;;;;-5.51;64.41;96930.13;2068163;28;20208;-60
2022/03/08 04:00:41;;;;;;;29.23;14.32;;;;;;;-5.52;64.38;96922.50;2067992;28;20240;-60
2022/03/08 04:01:43;;;;;;;30.25;15.70;;;;;;;-5.46;64.31;96930.16;2067200;28;20289;-60
2022/03/08 04:02:45;;;;;;;31.00;15.98;;;;;;;-5.41;64.16;96924.19;2066784;28;20198;-60
2022/03/08 04:03:46;;;;;;;28.55;15.63;;;;;;;-5.42;64.03;96927.59;2069964;28;20335;-60
2022/03/08 04:04:48;;;;;;;28.30;14.80;;;;;;;-5.47;63.98;96928.44;2065000;28;20549;-61
2022/03/08 04:05:49;;;;;;;27.17;15.07;;;;;;;-5.49;64.47;96931.00;2066185;28;20758;-60
2022/03/08 04:06:51;;;;;;;28.88;13.77;;;;;;;-5.43;64.21;96925.03;2065854;28;20201;-60
2022/03/08 04:07:52;;;;;;;28.70;14.65;;;;;;;-5.34;63.84;96934.41;2067022;28;20197;-59
2022/03/08 04:08:54;;;;;;;30.65;12.98;;;;;;;-5.34;63.66;96924.19;2067637;28;20206;-60
2022/03/08 04:09:56;;;;;;;29.70;12.52;;;;;;;-5.32;63.65;96928.44;2067727;28;20249;-60
2022/03/08 04:10:57;;;;;;;24.90;13.18;;;;;;;-5.36;63.71;96926.75;2067689;28;20684;-60
2022/03/08 04:11:59;;;;;;;23.08;12.50;;;;;;;-5.30;63.61;96921.63;2067065;28;20202;-60
2022/03/08 04:13:00;;;;;;;16.08;10.50;;;;;;;-5.28;63.60;96929.28;2066460;28;20201;-60
2022/03/08 04:14:02;;;;;;;21.00;11.63;;;;;;;-5.24;63.15;96933.53;2066283;28;20210;-60
2022/03/08 04:15:04;;;;;;;21.15;11.45;;;;;;;-5.34;63.52;96916.53;2065919;28;20255;-60
2022/03/08 04:16:05;;;;;;;23.30;11.18;;;;;;;-5.35;63.75;96928.44;2069808;28;20208;-60
2022/03/08 04:17:07;;;;;;;24.75;12.40;;;;;;;-5.35;63.71;96918.25;2065946;28;20214;-60
2022/03/08 04:18:09;;;;;;;19.00;10.02;;;;;;;-5.18;63.45;96918.19;2068206;28;20201;-60
2022/03/08 04:19:10;;;;;;;19.05;10.38;;;;;;;-5.19;63.38;96914.81;2067544;28;20259;-60
2022/03/08 04:20:12;;;;;;;20.90;10.15;;;;;;;-5.08;62.63;96917.31;2068572;28;20216;-60
2022/03/08 04:21:14;;;;;;;14.57;10.05;;;;;;;-4.98;62.72;96916.47;2069048;28;20300;-60
2022/03/08 04:22:15;;;;;;;20.33;10.02;;;;;;;-4.98;62.50;96920.69;2068991;28;20201;-60
2022/03/08 04:23:17;;;;;;;21.67;10.52;;;;;;;-5.01;62.69;96916.47;2070278;28;20533;-60
2022/03/08 04:24:18;;;;;;;17.85;10.05;;;;;;;-4.92;62.69;96918.16;2067137;28;20203;-60
2022/03/08 04:25:20;;;;;;;18.10;9.55;;;;;;;-4.88;62.23;96914.75;2067583;28;20220;-60
2022/03/08 04:26:21;;;;;;;18.45;9.18;;;;;;;-4.83;61.85;96923.22;2067910;28;20195;-60
2022/03/08 04:27:22;;;;;;;16.20;9.60;;;;;;;-4.77;61.72;96923.19;2069957;28;20202;-60
2022/03/08 04:28:24;;;;;;;17.42;8.10;;;;;;;-4.72;61.43;96912.97;2070224;28;20538;-60
2022/03/08 04:29:25;;;;;;;18.80;10.60;;;;;;;-4.70;61.17;96918.09;2070132;28;20633;-60
2022/03/08 04:30:27;;;;;;;15.57;9.30;;;;;;;-4.73;61.40;96925.75;2067910;28;20232;-60
2022/03/08 04:31:28;;;;;;;16.58;9.10;;;;;;;-4.70;61.47;96918.94;2067970;28;20197;-60
2022/03/08 04:32:30;;;;;;;14.40;9.50;;;;;;;-4.71;61.35;96927.44;2065395;28;20191;-60
2022/03/08 04:33:31;;;;;;;17.27;9.05;;;;;;;-4.75;61.18;96902.75;2068576;28;20195;-60
2022/03/08 04:34:33;;;;;;;19.52;9.85;;;;;;;-4.69;61.43;96927.44;2066839;28;20570;-60
2022/03/08 04:35:34;;;;;;;16.95;9.02;;;;;;;-4.71;61.50;96927.44;2065939;28;20236;-60
2022/03/08 04:36:36;;;;;;;22.65;11.90;;;;;;;-4.68;61.63;96926.59;2067459;28;20202;-60
2022/03/08 04:37:38;;;;;;;22.70;11.40;;;;;;;-4.86;62.13;96933.47;2068860;28;20575;-60
2022/03/08 04:38:39;;;;;;;28.27;13.95;;;;;;;-5.01;62.98;96926.69;2068236;28;20198;-60
2022/03/08 04:39:41;;;;;;;23.85;12.60;;;;;;;-5.07;62.90;96933.53;2068359;28;20198;-60
2022/03/08 04:40:43;;;;;;;26.50;13.40;;;;;;;-5.19;63.67;96932.69;2068338;28;20222;-60
2022/03/08 04:41:44;;;;;;;32.30;14.55;;;;;;;-5.38;64.27;96934.38;2067799;28;20237;-60
2022/03/08 04:42:46;;;;;;;31.58;14.75;;;;;;;-5.41;64.59;96933.53;2067802;28;20712;-60
2022/03/08 04:43:47;;;;;;;23.77;13.45;;;;;;;-5.49;64.86;96935.25;2066420;28;20206;-60
2022/03/08 04:44:49;;;;;;;27.10;14.13;;;;;;;-5.68;65.47;96935.25;2067371;28;20233;-60